KERV/ERV METAR and TAF weather

Enter ICAO airport designator
Station Type Date Time Source
KERV METAR 2020/01/26 03:55 UTC NOAA

KERV 260355Z AUTO 00000KT 4SM BR OVC003 14/13 A3004 RMK AO2 T01370125


Station Type Date Time Source
KERV Decoded METAR 2020/01/26 03:55 UTC NOAA

Kerrville, Kerrville Municipal Airport/Louis Schreiner Field, TX, United States (KERV) 29-58N 099-05W
Jan 25, 2020 - 10:55 PM EST / 2020.01.26 0355 UTC
Wind: Calm:0
Visibility: 4 mile(s):0
Sky conditions: overcast
Weather: mist
Temperature: 56.7 F (13.7 C)
Dew Point: 54.5 F (12.5 C)
Relative Humidity: 92%
Pressure (altimeter): 30.04 in. Hg (1017 hPa)
ob: KERV 260355Z AUTO 00000KT 4SM BR OVC003 14/13 A3004 RMK AO2 T01370125
cycle: 4

Station Type Date Time Source
KERV TAF UTC NOAA

Error!

Example: see airport list